createdAt,value
2023-06-29T00:00:07.392Z,100.00
2023-06-29T00:02:55.555Z,100.00
2023-06-29T00:05:23.952Z,100.00
2023-06-29T00:07:51.936Z,100.00
2023-06-29T00:10:20.060Z,100.00
2023-06-29T00:12:48.298Z,100.00
2023-06-29T00:15:16.749Z,100.00
2023-06-29T00:17:48.651Z,100.00
2023-06-29T00:20:16.885Z,100.00
2023-06-29T00:22:58.127Z,100.00
2023-06-29T00:25:26.350Z,100.00
2023-06-29T00:27:54.434Z,100.00
2023-06-29T00:30:22.653Z,100.00
2023-06-29T00:32:50.883Z,100.00
2023-06-29T00:35:19.199Z,100.00
2023-06-29T00:37:47.340Z,100.00
2023-06-29T00:40:15.719Z,100.00
2023-06-29T00:42:44.860Z,100.00
2023-06-29T00:45:12.938Z,100.00
2023-06-29T00:47:41.162Z,100.00
2023-06-29T00:50:10.267Z,100.00
2023-06-29T00:52:38.404Z,100.00
2023-06-29T00:55:08.238Z,100.00
2023-06-29T00:57:40.987Z,100.00
2023-06-29T01:00:12.102Z,100.00
2023-06-29T01:02:44.074Z,100.00
2023-06-29T01:05:15.365Z,100.00
2023-06-29T01:08:06.982Z,100.00
2023-06-29T01:10:37.246Z,100.00
2023-06-29T01:13:08.186Z,100.00
2023-06-29T01:15:38.431Z,100.00
2023-06-29T01:18:20.244Z,100.00
2023-06-29T01:20:50.928Z,100.00
2023-06-29T01:23:26.280Z,100.00
2023-06-29T01:25:56.332Z,100.00
2023-06-29T01:28:30.211Z,100.00
2023-06-29T01:30:58.442Z,100.00
2023-06-29T01:36:50.193Z,100.00
2023-06-29T01:39:24.087Z,100.00
2023-06-29T01:41:54.828Z,100.00
2023-06-29T01:44:22.892Z,100.00
2023-06-29T01:46:53.698Z,100.00
2023-06-29T01:49:22.519Z,100.00
2023-06-29T01:51:50.843Z,100.00
2023-06-29T01:54:18.882Z,100.00
2023-06-29T01:56:47.480Z,100.00
2023-06-29T01:59:15.831Z,100.00
2023-06-29T02:01:44.899Z,100.00
2023-06-29T02:04:14.217Z,100.00
2023-06-29T02:06:42.204Z,100.00
2023-06-29T02:09:11.526Z,100.00
2023-06-29T02:11:39.816Z,100.00
2023-06-29T02:14:08.149Z,100.00
2023-06-29T02:16:36.682Z,100.00
2023-06-29T02:19:04.795Z,100.00
2023-06-29T02:21:35.163Z,100.00
2023-06-29T02:24:05.099Z,100.00
2023-06-29T02:26:33.822Z,100.00
2023-06-29T02:29:02.110Z,100.00
2023-06-29T02:31:31.008Z,100.00
2023-06-29T02:34:00.945Z,100.00
2023-06-29T02:36:29.436Z,100.00
2023-06-29T02:38:57.754Z,100.00
2023-06-29T02:41:25.932Z,100.00
2023-06-29T02:43:54.326Z,100.00
2023-06-29T02:46:23.003Z,100.00
2023-06-29T02:48:52.909Z,100.00
2023-06-29T02:51:21.171Z,100.00
2023-06-29T02:53:50.241Z,100.00
2023-06-29T02:56:18.328Z,100.00
2023-06-29T02:58:46.400Z,100.00
2023-06-29T03:01:20.811Z,100.00
2023-06-29T03:03:49.320Z,100.00
2023-06-29T03:06:17.768Z,100.00
2023-06-29T03:08:47.009Z,100.00
2023-06-29T03:11:15.716Z,100.00
2023-06-29T03:13:43.691Z,100.00
2023-06-29T03:16:11.667Z,100.00
2023-06-29T03:18:39.531Z,100.00
2023-06-29T03:21:16.263Z,100.00
2023-06-29T03:23:45.792Z,100.00
2023-06-29T03:26:14.218Z,100.00
2023-06-29T03:28:42.455Z,100.00
2023-06-29T03:31:10.568Z,100.00
2023-06-29T03:33:38.531Z,100.00
2023-06-29T03:36:10.539Z,100.00
2023-06-29T03:38:38.660Z,100.00
2023-06-29T03:41:06.948Z,100.00
2023-06-29T03:43:34.963Z,100.00
2023-06-29T03:46:03.005Z,100.00
2023-06-29T03:48:31.330Z,100.00
2023-06-29T03:50:59.343Z,100.00
2023-06-29T03:53:28.443Z,100.00
2023-06-29T03:55:56.524Z,100.00
2023-06-29T03:58:24.683Z,100.00
2023-06-29T04:05:11.658Z,100.00
2023-06-29T04:07:40.038Z,100.00
2023-06-29T04:10:08.262Z,100.00
2023-06-29T04:12:36.421Z,100.00
2023-06-29T04:15:04.600Z,100.00
2023-06-29T04:17:32.656Z,100.00
2023-06-29T04:20:01.219Z,100.00
2023-06-29T04:22:29.149Z,100.00
2023-06-29T04:24:57.204Z,100.00
2023-06-29T04:27:25.526Z,100.00
2023-06-29T04:29:53.610Z,100.00
2023-06-29T04:34:37.620Z,100.00
2023-06-29T04:37:06.941Z,96.99
2023-06-29T04:39:35.326Z,95.02
2023-06-29T04:42:04.259Z,92.87
2023-06-29T04:44:33.470Z,91.82
2023-06-29T04:47:02.958Z,89.75
2023-06-29T04:49:38.725Z,85.99
2023-06-29T04:52:07.875Z,81.06
2023-06-29T04:54:36.427Z,76.61
2023-06-29T04:57:04.611Z,71.10
2023-06-29T04:59:32.843Z,65.22
2023-06-29T05:02:01.056Z,61.28
2023-06-29T05:04:30.117Z,58.12
2023-06-29T05:06:58.506Z,57.53
2023-06-29T05:09:26.565Z,56.60
2023-06-29T05:11:54.756Z,54.30
2023-06-29T05:14:23.056Z,54.11
2023-06-29T05:16:51.299Z,53.76
2023-06-29T05:19:19.465Z,51.84
2023-06-29T05:21:47.654Z,50.26
2023-06-29T05:24:17.273Z,51.11
2023-06-29T05:26:47.196Z,48.58
2023-06-29T05:29:15.439Z,47.25
2023-06-29T05:31:43.621Z,46.74
2023-06-29T05:34:11.705Z,45.11
2023-06-29T05:36:39.925Z,43.42
2023-06-29T05:39:09.459Z,42.27
2023-06-29T05:41:39.375Z,40.41
2023-06-29T05:44:07.669Z,39.86
2023-06-29T05:46:38.062Z,40.00
2023-06-29T05:49:07.113Z,41.18
2023-06-29T05:51:35.792Z,42.02
2023-06-29T05:54:05.684Z,42.04
2023-06-29T05:56:33.965Z,41.57
2023-06-29T05:59:28.062Z,41.78
2023-06-29T06:01:56.290Z,42.25
2023-06-29T06:04:24.752Z,42.93
2023-06-29T06:06:53.147Z,43.10
2023-06-29T06:09:21.233Z,43.22
2023-06-29T06:11:49.344Z,43.62
2023-06-29T06:14:17.625Z,43.67
2023-06-29T06:16:45.969Z,43.85
2023-06-29T06:19:14.072Z,43.75
2023-06-29T06:21:42.520Z,43.53
2023-06-29T06:24:11.841Z,42.87
2023-06-29T06:26:40.096Z,42.48
2023-06-29T06:29:08.123Z,42.62
2023-06-29T06:31:36.313Z,42.64
2023-06-29T06:34:04.384Z,42.27
2023-06-29T06:36:33.794Z,42.46
2023-06-29T06:39:02.643Z,42.27
2023-06-29T06:41:30.787Z,42.69
2023-06-29T06:43:58.958Z,42.77
2023-06-29T06:46:27.604Z,42.73
2023-06-29T06:48:55.806Z,42.49
2023-06-29T06:51:24.195Z,43.05
2023-06-29T06:53:52.624Z,43.05
2023-06-29T06:56:21.067Z,43.66
2023-06-29T06:58:49.652Z,43.38
2023-06-29T07:01:18.543Z,43.28
2023-06-29T07:03:47.143Z,44.44
2023-06-29T07:06:15.767Z,44.27
2023-06-29T07:08:44.676Z,44.06
2023-06-29T07:11:12.840Z,44.60
2023-06-29T07:13:40.986Z,44.93
2023-06-29T07:16:09.188Z,44.93
2023-06-29T07:18:38.231Z,44.24
2023-06-29T07:26:09.014Z,44.40
2023-06-29T07:28:37.541Z,45.23
2023-06-29T07:31:05.762Z,45.57
2023-06-29T07:33:36.643Z,45.67
2023-06-29T07:36:06.535Z,45.30
2023-06-29T07:38:35.888Z,45.59
2023-06-29T07:41:06.236Z,45.73
2023-06-29T07:43:34.428Z,46.17
2023-06-29T07:46:03.107Z,46.87
2023-06-29T07:48:31.512Z,47.99
2023-06-29T07:51:25.932Z,48.04
2023-06-29T07:53:54.226Z,48.55
2023-06-29T07:56:22.366Z,49.08
2023-06-29T07:58:53.471Z,48.94
2023-06-29T08:01:21.970Z,49.44
2023-06-29T08:04:00.222Z,48.85
2023-06-29T08:09:01.909Z,49.98
2023-06-29T08:11:30.527Z,50.34
2023-06-29T08:13:59.192Z,49.62
2023-06-29T08:16:27.440Z,49.48
2023-06-29T08:18:55.629Z,49.77
2023-06-29T08:21:23.937Z,50.05
2023-06-29T08:23:52.164Z,50.60
2023-06-29T08:26:20.609Z,51.37
2023-06-29T08:28:48.989Z,51.44
2023-06-29T08:31:17.144Z,52.90
2023-06-29T08:33:45.544Z,53.61
2023-06-29T08:36:14.072Z,53.56
2023-06-29T08:38:47.316Z,53.65
2023-06-29T08:41:17.106Z,53.96
2023-06-29T08:43:45.418Z,54.28
2023-06-29T08:46:13.706Z,54.24
2023-06-29T08:48:45.453Z,52.70
2023-06-29T08:51:17.308Z,52.77
2023-06-29T08:53:46.816Z,53.12
2023-06-29T08:56:15.836Z,52.67
2023-06-29T08:58:44.811Z,53.37
2023-06-29T09:01:13.299Z,54.06
2023-06-29T09:03:42.120Z,53.30
2023-06-29T09:06:10.615Z,52.47
2023-06-29T09:08:39.979Z,53.61
2023-06-29T09:11:08.044Z,54.11
2023-06-29T09:13:36.338Z,54.67
2023-06-29T09:16:05.539Z,54.45
2023-06-29T09:18:34.111Z,54.10
2023-06-29T09:21:04.784Z,53.57
2023-06-29T09:23:34.525Z,54.68
2023-06-29T09:26:05.807Z,54.18
2023-06-29T09:28:36.702Z,54.08
2023-06-29T09:31:10.164Z,54.48
2023-06-29T09:33:39.355Z,53.83
2023-06-29T09:36:09.660Z,54.50
2023-06-29T09:38:38.909Z,53.86
2023-06-29T09:41:08.248Z,53.47
2023-06-29T09:43:39.169Z,54.02
2023-06-29T09:46:10.512Z,52.73
2023-06-29T09:51:25.132Z,51.05
2023-06-29T09:53:53.743Z,52.89
2023-06-29T09:56:22.987Z,53.62
2023-06-29T09:58:53.469Z,52.85
2023-06-29T10:01:23.904Z,51.92
2023-06-29T10:03:51.920Z,52.32
2023-06-29T10:06:26.462Z,51.84
2023-06-29T10:08:56.798Z,49.76
2023-06-29T10:11:30.550Z,50.50
2023-06-29T10:14:02.880Z,49.80
2023-06-29T10:16:36.975Z,49.11
2023-06-29T10:19:32.868Z,48.33
2023-06-29T10:22:06.583Z,48.09
2023-06-29T10:24:46.332Z,47.92
2023-06-29T10:27:17.209Z,47.66
2023-06-29T10:29:45.645Z,47.58
2023-06-29T10:32:33.315Z,46.82
2023-06-29T10:35:03.918Z,43.64
2023-06-29T10:37:33.439Z,43.90
2023-06-29T10:40:02.746Z,44.74
2023-06-29T10:42:31.190Z,44.94
2023-06-29T10:44:59.364Z,43.81
2023-06-29T10:47:29.587Z,45.70
2023-06-29T10:50:10.204Z,47.23
2023-06-29T10:52:39.853Z,47.22
2023-06-29T10:55:24.858Z,47.26
2023-06-29T10:58:00.172Z,47.18
2023-06-29T11:04:41.367Z,46.51
2023-06-29T11:07:12.267Z,46.85
2023-06-29T11:09:40.238Z,47.44
2023-06-29T11:12:09.253Z,47.51
2023-06-29T11:14:39.456Z,46.49
2023-06-29T11:17:09.505Z,46.73
2023-06-29T11:19:43.943Z,47.51
2023-06-29T11:22:12.136Z,46.90
2023-06-29T11:24:42.778Z,47.49
2023-06-29T11:27:11.533Z,45.67
2023-06-29T11:29:39.492Z,46.15
2023-06-29T11:32:14.127Z,45.99
2023-06-29T11:34:42.484Z,44.30
2023-06-29T11:39:59.334Z,40.93
2023-06-29T11:42:27.598Z,41.07
2023-06-29T11:45:06.010Z,41.93
2023-06-29T11:47:34.444Z,42.16
2023-06-29T11:50:04.497Z,42.24
2023-06-29T11:52:33.468Z,42.11
2023-06-29T11:55:04.012Z,41.26
2023-06-29T11:57:35.602Z,41.27
2023-06-29T12:00:09.013Z,41.56
2023-06-29T12:02:44.068Z,41.94
2023-06-29T12:05:12.492Z,41.78
2023-06-29T12:07:45.753Z,41.41
2023-06-29T12:10:24.371Z,41.45
2023-06-29T12:13:00.016Z,42.48
2023-06-29T12:15:29.656Z,43.00
2023-06-29T12:18:11.865Z,42.48
2023-06-29T12:20:42.659Z,41.74
2023-06-29T12:23:13.851Z,41.41
2023-06-29T12:25:51.333Z,41.93
2023-06-29T12:28:20.300Z,42.45
2023-06-29T12:30:48.889Z,42.05
2023-06-29T12:33:17.559Z,42.22
2023-06-29T12:35:45.696Z,42.59
2023-06-29T12:38:14.166Z,43.34
2023-06-29T12:40:42.369Z,43.58
2023-06-29T12:43:10.815Z,43.54
2023-06-29T12:45:38.999Z,42.91
2023-06-29T12:48:07.546Z,42.98
2023-06-29T12:50:36.596Z,43.43
2023-06-29T12:53:04.812Z,43.12
2023-06-29T12:55:32.816Z,43.12
2023-06-29T12:58:01.152Z,42.56
2023-06-29T13:00:29.335Z,42.97
2023-06-29T13:02:58.761Z,43.35
2023-06-29T13:05:27.055Z,43.58
2023-06-29T13:07:55.314Z,43.50
2023-06-29T13:10:23.421Z,43.99
2023-06-29T13:12:51.496Z,43.86
2023-06-29T13:15:19.533Z,43.61
2023-06-29T13:17:47.774Z,43.49
2023-06-29T13:20:16.029Z,43.70
2023-06-29T13:22:44.430Z,43.61
2023-06-29T13:25:13.279Z,43.43
2023-06-29T13:27:42.678Z,43.75
2023-06-29T13:30:11.456Z,44.50
2023-06-29T13:32:39.765Z,45.05
2023-06-29T13:35:08.256Z,45.65
2023-06-29T13:37:36.501Z,45.60
2023-06-29T13:40:05.476Z,44.94
2023-06-29T13:42:33.777Z,45.58
2023-06-29T13:45:03.067Z,45.23
2023-06-29T13:47:31.388Z,45.38
2023-06-29T13:49:59.410Z,45.51
2023-06-29T13:52:27.414Z,45.61
2023-06-29T13:54:55.894Z,45.15
2023-06-29T13:57:25.566Z,44.80
2023-06-29T13:59:53.754Z,44.78
2023-06-29T14:02:21.775Z,45.25
2023-06-29T14:04:50.839Z,45.16
2023-06-29T14:07:23.209Z,44.84
2023-06-29T14:09:51.750Z,45.08
2023-06-29T14:12:19.866Z,44.82
2023-06-29T14:14:50.388Z,44.59
2023-06-29T14:17:20.467Z,44.56
2023-06-29T14:19:54.047Z,45.41
2023-06-29T14:22:22.594Z,45.86
2023-06-29T14:24:51.037Z,45.30
2023-06-29T14:27:20.172Z,44.84
2023-06-29T14:29:48.439Z,45.10
2023-06-29T14:32:16.703Z,45.98
2023-06-29T14:34:49.061Z,46.63
2023-06-29T14:37:20.017Z,46.20
2023-06-29T14:39:48.517Z,46.34
2023-06-29T14:42:16.737Z,46.10
2023-06-29T14:44:45.873Z,46.37
2023-06-29T14:47:14.885Z,46.39
2023-06-29T14:49:43.824Z,45.97
2023-06-29T14:52:12.369Z,46.51
2023-06-29T14:54:41.218Z,46.44
2023-06-29T14:57:10.148Z,46.42
2023-06-29T14:59:38.381Z,46.58
2023-06-29T15:02:06.630Z,47.25
2023-06-29T15:04:34.809Z,47.27
2023-06-29T15:07:03.525Z,47.05
2023-06-29T15:09:32.084Z,47.10
2023-06-29T15:12:00.518Z,47.49
2023-06-29T15:14:29.384Z,47.92
2023-06-29T15:16:57.372Z,47.53
2023-06-29T15:19:26.336Z,47.06
2023-06-29T15:22:12.031Z,47.32
2023-06-29T15:24:40.428Z,48.03
2023-06-29T15:27:08.766Z,47.58
2023-06-29T15:29:37.416Z,48.12
2023-06-29T15:32:06.607Z,47.92
2023-06-29T15:34:34.969Z,47.86
2023-06-29T15:37:04.414Z,47.99
2023-06-29T15:39:33.387Z,48.23
2023-06-29T15:42:02.676Z,48.35
2023-06-29T15:44:32.691Z,48.29
2023-06-29T15:47:00.892Z,48.24
2023-06-29T15:49:29.080Z,48.11
2023-06-29T15:51:57.310Z,48.56
2023-06-29T15:54:25.515Z,48.71
2023-06-29T15:56:53.946Z,48.49
2023-06-29T15:59:22.125Z,48.84
2023-06-29T16:01:51.462Z,49.03
2023-06-29T16:04:19.669Z,48.36
2023-06-29T16:06:48.041Z,48.85
2023-06-29T16:09:16.996Z,49.43
2023-06-29T16:11:45.196Z,49.99
2023-06-29T16:14:13.630Z,49.62
2023-06-29T16:16:42.008Z,49.57
2023-06-29T16:19:16.173Z,49.44
2023-06-29T16:21:46.455Z,49.42
2023-06-29T16:24:14.876Z,49.22
2023-06-29T16:26:43.168Z,49.41
2023-06-29T16:29:12.558Z,49.32
2023-06-29T16:31:42.689Z,49.34
2023-06-29T16:34:14.206Z,49.70
2023-06-29T16:36:42.371Z,49.94
2023-06-29T16:39:10.517Z,50.21
2023-06-29T16:41:40.598Z,50.39
2023-06-29T16:44:09.179Z,50.74
2023-06-29T16:46:39.183Z,51.06
2023-06-29T16:49:07.988Z,51.31
2023-06-29T16:51:37.187Z,51.68
2023-06-29T16:54:05.508Z,51.52
2023-06-29T16:56:33.606Z,51.78
2023-06-29T16:59:01.655Z,51.90
2023-06-29T17:01:29.780Z,52.56
2023-06-29T17:03:58.257Z,52.64
2023-06-29T17:06:26.313Z,52.82
2023-06-29T17:08:54.431Z,53.18
2023-06-29T17:11:22.499Z,53.73
2023-06-29T17:13:51.871Z,53.96
2023-06-29T17:16:20.119Z,54.26
2023-06-29T17:18:48.894Z,54.74
2023-06-29T17:21:18.545Z,55.23
2023-06-29T17:23:46.931Z,55.91
2023-06-29T17:26:15.059Z,56.34
2023-06-29T17:28:43.216Z,56.46
2023-06-29T17:31:11.660Z,56.93
2023-06-29T17:33:53.516Z,57.14
2023-06-29T17:36:24.380Z,57.82
2023-06-29T17:38:53.149Z,58.38
2023-06-29T17:41:21.920Z,58.91
2023-06-29T17:43:50.268Z,59.31
2023-06-29T17:46:18.675Z,59.61
2023-06-29T17:48:48.335Z,59.55
2023-06-29T17:51:18.838Z,59.32
2023-06-29T17:53:47.967Z,58.83
2023-06-29T17:56:17.194Z,58.08
2023-06-29T17:58:45.363Z,56.77
2023-06-29T18:01:15.443Z,55.62
2023-06-29T18:03:43.897Z,54.94
2023-06-29T18:06:13.282Z,54.41
2023-06-29T18:08:41.956Z,53.86
2023-06-29T18:11:09.992Z,53.86
2023-06-29T18:13:38.347Z,53.27
2023-06-29T18:16:06.603Z,53.18
2023-06-29T18:18:35.225Z,53.11
2023-06-29T18:21:04.800Z,53.65
2023-06-29T18:23:32.974Z,53.51
2023-06-29T18:26:02.503Z,53.27
2023-06-29T18:28:30.639Z,53.40
2023-06-29T18:30:58.782Z,53.62
2023-06-29T18:33:27.021Z,54.01
2023-06-29T18:35:55.179Z,54.10
2023-06-29T18:38:23.678Z,54.38
2023-06-29T18:40:52.134Z,54.57
2023-06-29T18:43:20.614Z,54.82
2023-06-29T18:45:50.681Z,55.20
2023-06-29T18:48:18.663Z,55.15
2023-06-29T18:50:48.193Z,55.52
2023-06-29T18:53:16.202Z,55.77
2023-06-29T18:55:44.825Z,56.24
2023-06-29T18:58:13.184Z,56.45
2023-06-29T19:04:56.341Z,57.33
2023-06-29T19:07:23.083Z,58.09
2023-06-29T19:09:49.871Z,58.54
2023-06-29T19:12:16.599Z,58.97
2023-06-29T19:14:43.415Z,59.61
2023-06-29T19:17:10.357Z,59.78
2023-06-29T19:19:37.201Z,60.34
2023-06-29T19:22:04.057Z,61.04
2023-06-29T19:24:30.663Z,61.14
2023-06-29T19:26:57.782Z,61.49
2023-06-29T19:29:24.760Z,62.03
2023-06-29T19:31:51.686Z,62.57
2023-06-29T19:34:18.438Z,62.97
2023-06-29T19:36:47.432Z,63.43
2023-06-29T19:39:16.218Z,63.58
2023-06-29T19:41:43.543Z,63.41
2023-06-29T19:44:10.187Z,63.49
2023-06-29T19:46:39.482Z,63.52
2023-06-29T19:49:06.337Z,64.12
2023-06-29T19:51:34.427Z,64.64
2023-06-29T19:54:01.350Z,65.07
2023-06-29T19:56:28.885Z,65.24
2023-06-29T19:58:56.047Z,65.76
2023-06-29T20:01:23.116Z,67.31
2023-06-29T20:03:50.136Z,68.61
2023-06-29T20:06:16.883Z,72.48
2023-06-29T20:08:43.659Z,75.04
2023-06-29T20:11:10.255Z,75.85
2023-06-29T20:13:36.854Z,75.38
2023-06-29T20:16:03.686Z,74.83
2023-06-29T20:18:30.341Z,75.22
2023-06-29T20:20:57.033Z,76.69
2023-06-29T20:23:23.649Z,77.16
2023-06-29T20:25:51.326Z,77.85
2023-06-29T20:28:17.800Z,77.91
2023-06-29T20:30:44.518Z,78.23
2023-06-29T20:33:11.679Z,79.15
2023-06-29T20:35:38.339Z,78.96
2023-06-29T20:38:04.894Z,79.33
2023-06-29T20:40:31.984Z,79.73
2023-06-29T20:42:59.385Z,80.27
2023-06-29T20:45:26.441Z,80.57
2023-06-29T20:47:53.652Z,80.97
2023-06-29T20:50:20.367Z,81.55
2023-06-29T20:52:47.580Z,82.12
2023-06-29T20:55:14.623Z,82.12
2023-06-29T20:57:41.300Z,82.35
2023-06-29T21:00:11.956Z,82.60
2023-06-29T21:02:39.924Z,83.54
2023-06-29T21:05:07.163Z,84.38
2023-06-29T21:07:34.298Z,84.37
2023-06-29T21:10:01.003Z,84.52
2023-06-29T21:12:27.958Z,84.58
2023-06-29T21:14:55.331Z,85.20
2023-06-29T21:17:22.552Z,85.74
2023-06-29T21:19:49.929Z,86.15
2023-06-29T21:22:18.244Z,86.48
2023-06-29T21:24:46.156Z,86.89
2023-06-29T21:27:18.008Z,87.26
2023-06-29T21:29:47.606Z,87.73
2023-06-29T21:32:15.614Z,87.77
2023-06-29T21:34:43.634Z,87.77
2023-06-29T21:37:11.374Z,88.18
2023-06-29T21:39:39.421Z,89.30
2023-06-29T21:42:07.047Z,90.59
2023-06-29T21:44:33.836Z,91.16
2023-06-29T21:47:01.745Z,90.69
2023-06-29T21:49:28.789Z,89.92
2023-06-29T21:51:55.902Z,90.32
2023-06-29T21:54:22.961Z,89.65
2023-06-29T21:56:50.432Z,90.00
2023-06-29T21:59:17.926Z,90.03
2023-06-29T22:01:45.095Z,90.73
2023-06-29T22:04:12.733Z,90.63
2023-06-29T22:06:40.583Z,92.68
2023-06-29T22:09:07.417Z,99.31
2023-06-29T22:11:34.261Z,99.81
2023-06-29T22:14:01.430Z,99.16
2023-06-29T22:16:28.611Z,99.57
2023-06-29T22:18:56.168Z,99.84
2023-06-29T22:21:24.596Z,99.97
2023-06-29T22:23:52.877Z,100.00
2023-06-29T22:26:19.912Z,100.00
2023-06-29T22:28:47.690Z,100.00
2023-06-29T22:31:17.501Z,100.00
2023-06-29T22:33:44.936Z,100.00
2023-06-29T22:36:12.374Z,100.00
2023-06-29T22:38:40.995Z,100.00
2023-06-29T22:41:08.347Z,100.00
2023-06-29T22:43:35.349Z,100.00
2023-06-29T22:46:02.597Z,100.00
2023-06-29T22:48:29.592Z,100.00
2023-06-29T22:50:56.840Z,100.00
2023-06-29T22:53:23.851Z,100.00
2023-06-29T22:55:50.688Z,100.00
2023-06-29T22:58:24.653Z,100.00
2023-06-29T23:00:55.479Z,100.00
2023-06-29T23:03:23.623Z,100.00
2023-06-29T23:05:50.733Z,100.00
2023-06-29T23:08:17.682Z,100.00
2023-06-29T23:10:47.018Z,100.00
2023-06-29T23:13:17.521Z,100.00
2023-06-29T23:15:45.958Z,100.00
2023-06-29T23:18:13.783Z,100.00
2023-06-29T23:20:45.258Z,100.00
2023-06-29T23:23:13.547Z,100.00
2023-06-29T23:25:43.864Z,100.00
2023-06-29T23:28:11.050Z,100.00
2023-06-29T23:30:40.431Z,100.00
2023-06-29T23:33:08.736Z,100.00
2023-06-29T23:35:35.882Z,100.00
2023-06-29T23:38:02.574Z,100.00
2023-06-29T23:40:31.211Z,100.00
2023-06-29T23:42:58.559Z,100.00
2023-06-29T23:45:25.933Z,100.00
2023-06-29T23:47:52.560Z,100.00
2023-06-29T23:50:19.476Z,100.00
2023-06-29T23:52:47.133Z,100.00
2023-06-29T23:55:13.897Z,100.00
2023-06-29T23:57:40.975Z,100.00
